Time;durP1;ratioP1;P1;durP2;ratioP2;P2;SDS_P1;SDS_P2;PMS_P1;PMS_P2;Temp;Humidity;BMP_temperature;BMP_pressure;BME280_temperature;BME280_humidity;BME280_pressure;Samples;Min_cycle;Max_cycle;Signal;HPM_P1;HPM_P2
2023/03/01 00:01:21;;;;;;;32.22;20.30;;;;;;;1.51;100.00;103318.97;4986450;28;20023;-70
2023/03/01 00:03:47;;;;;;;31.67;19.67;;;;;;;1.48;100.00;103308.44;4986942;28;20054;-70
2023/03/01 00:06:12;;;;;;;33.45;20.17;;;;;;;1.55;100.00;103303.50;4987320;28;20105;-70
2023/03/01 00:08:38;;;;;;;32.20;20.90;;;;;;;1.47;100.00;103313.56;4999097;28;20030;-69
2023/03/01 00:11:10;;;;;;;32.95;20.67;;;;;;;1.43;100.00;103309.06;5007868;28;20075;-69
2023/03/01 00:13:35;;;;;;;28.88;20.40;;;;;;;1.45;100.00;103313.53;5007204;28;20395;-69
2023/03/01 00:16:06;;;;;;;32.83;21.60;;;;;;;1.51;100.00;103303.38;5004114;28;20026;-70
2023/03/01 00:18:31;;;;;;;33.58;20.83;;;;;;;1.49;100.00;103305.03;5006835;28;20068;-69
2023/03/01 00:20:56;;;;;;;35.25;21.25;;;;;;;1.43;100.00;103304.75;5006796;28;20025;-69
2023/03/01 00:23:22;;;;;;;35.63;21.98;;;;;;;1.44;100.00;103301.31;5006467;28;20083;-69
2023/03/01 00:25:48;;;;;;;30.20;20.98;;;;;;;1.43;100.00;103298.66;5005551;28;20049;-70
2023/03/01 00:28:13;;;;;;;41.85;21.52;;;;;;;1.46;100.00;103299.69;5004341;28;20044;-69
2023/03/01 00:30:39;;;;;;;28.77;19.55;;;;;;;1.46;100.00;103301.41;5005779;28;20701;-70
2023/03/01 00:33:04;;;;;;;36.15;22.70;;;;;;;1.45;100.00;103297.03;5006297;28;20029;-69
2023/03/01 00:35:32;;;;;;;35.35;22.40;;;;;;;1.38;100.00;103298.44;5005112;28;20049;-69
2023/03/01 00:37:57;;;;;;;37.08;21.10;;;;;;;1.42;100.00;103297.78;5006614;28;20109;-70
2023/03/01 00:40:27;;;;;;;33.55;20.85;;;;;;;1.40;100.00;103299.41;5004186;28;20109;-70
2023/03/01 00:42:52;;;;;;;35.88;21.77;;;;;;;1.43;100.00;103294.34;5006615;28;20082;-69
2023/03/01 00:45:18;;;;;;;34.15;21.80;;;;;;;1.46;100.00;103286.69;5005539;28;20026;-69
2023/03/01 00:47:43;;;;;;;37.20;21.25;;;;;;;1.51;100.00;103292.97;5001422;28;20375;-69
2023/03/01 00:50:10;;;;;;;31.05;20.00;;;;;;;1.37;100.00;103299.28;4987223;28;20471;-69
2023/03/01 00:52:35;;;;;;;35.38;21.48;;;;;;;1.41;100.00;103290.78;4986588;28;20347;-70
2023/03/01 00:55:00;;;;;;;35.75;21.45;;;;;;;1.30;100.00;103292.94;4986937;28;20029;-70
2023/03/01 00:57:26;;;;;;;32.00;21.45;;;;;;;1.31;100.00;103291.22;4986753;28;20041;-69
2023/03/01 00:59:54;;;;;;;41.47;24.25;;;;;;;1.21;100.00;103298.59;4986328;28;20038;-70
2023/03/01 01:02:20;;;;;;;43.13;24.38;;;;;;;1.33;100.00;103289.56;4986525;28;20048;-70
2023/03/01 01:04:46;;;;;;;37.45;22.40;;;;;;;1.40;100.00;103283.84;5002823;28;20030;-70
2023/03/01 01:07:11;;;;;;;41.38;23.63;;;;;;;1.44;100.00;103283.13;5006229;28;20494;-69
2023/03/01 01:09:36;;;;;;;43.22;23.15;;;;;;;1.32;100.00;103290.41;5006483;28;20042;-69
2023/03/01 01:12:02;;;;;;;43.65;26.23;;;;;;;1.23;100.00;103289.16;5005174;28;20411;-70
2023/03/01 01:14:28;;;;;;;42.85;25.25;;;;;;;1.24;100.00;103288.34;5004483;28;20913;-68
2023/03/01 01:16:53;;;;;;;44.92;23.77;;;;;;;1.33;100.00;103294.78;5004131;28;20098;-70
2023/03/01 01:19:18;;;;;;;37.97;23.65;;;;;;;1.35;100.00;103288.81;5005415;28;20022;-69
2023/03/01 01:21:44;;;;;;;38.65;23.38;;;;;;;1.17;100.00;103290.59;4993550;28;20026;-70
2023/03/01 01:24:10;;;;;;;41.78;24.23;;;;;;;1.29;100.00;103280.75;4986178;28;20149;-70
2023/03/01 01:26:35;;;;;;;40.88;24.58;;;;;;;1.22;100.00;103277.00;4985323;28;20521;-69
2023/03/01 01:29:03;;;;;;;46.97;24.27;;;;;;;1.24;100.00;103277.06;4985291;28;20087;-69
2023/03/01 01:31:29;;;;;;;44.72;24.65;;;;;;;1.24;100.00;103269.28;4986101;28;20478;-69
2023/03/01 01:33:56;;;;;;;42.03;24.88;;;;;;;1.20;100.00;103268.25;5003035;28;20413;-69
2023/03/01 01:36:21;;;;;;;41.47;26.13;;;;;;;1.17;100.00;103255.13;5005844;28;20026;-69
2023/03/01 01:38:47;;;;;;;44.85;26.88;;;;;;;1.20;100.00;103255.25;5004738;28;20022;-70
2023/03/01 01:41:13;;;;;;;48.92;27.15;;;;;;;1.16;100.00;103247.25;4999138;28;20034;-70
2023/03/01 01:43:44;;;;;;;44.40;25.23;;;;;;;1.16;100.00;103247.25;4987069;28;20390;-71
2023/03/01 01:46:31;;;;;;;45.35;26.25;;;;;;;1.14;100.00;103242.00;4984075;28;20429;-69
2023/03/01 01:49:02;;;;;;;46.55;26.80;;;;;;;1.17;100.00;103244.72;4987847;28;20030;-69
2023/03/01 01:51:38;;;;;;;54.20;27.67;;;;;;;1.08;100.00;103234.81;4987884;28;20038;-68
2023/03/01 01:54:07;;;;;;;42.83;26.02;;;;;;;1.11;100.00;103234.06;4987015;28;20022;-69
2023/03/01 01:56:33;;;;;;;40.97;25.98;;;;;;;1.12;100.00;103228.94;4985111;28;20045;-69
2023/03/01 01:58:58;;;;;;;48.80;27.38;;;;;;;1.18;100.00;103236.13;4986527;28;20541;-69
2023/03/01 02:01:24;;;;;;;48.75;28.27;;;;;;;1.11;100.00;103227.16;4985014;28;20519;-70
2023/03/01 02:03:50;;;;;;;55.20;28.05;;;;;;;1.13;100.00;103228.13;4984327;28;20033;-71
2023/03/01 02:06:29;;;;;;;45.15;27.10;;;;;;;1.13;100.00;103229.84;4967879;28;20030;-71
2023/03/01 02:08:58;;;;;;;45.47;27.88;;;;;;;1.08;100.00;103229.63;4984727;28;20041;-69
2023/03/01 02:11:23;;;;;;;51.65;28.17;;;;;;;1.12;100.00;103235.88;4983677;28;20482;-70
2023/03/01 02:16:22;;;;;;;49.70;27.23;;;;;;;1.13;100.00;103227.25;4974911;28;20058;-57
2023/03/01 02:18:47;;;;;;;46.80;27.27;;;;;;;1.12;100.00;103221.16;4966772;28;20023;-57
2023/03/01 02:21:38;;;;;;;47.33;27.23;;;;;;;1.14;100.00;103223.81;4948842;28;20034;-58
2023/03/01 02:24:20;;;;;;;47.15;26.50;;;;;;;1.08;100.00;103226.16;4949107;28;20027;-58
2023/03/01 02:26:52;;;;;;;44.75;26.98;;;;;;;1.04;100.00;103217.34;4969697;28;20026;-57
2023/03/01 02:29:17;;;;;;;46.97;25.45;;;;;;;1.06;100.00;103214.81;4970399;28;20038;-59
2023/03/01 02:31:43;;;;;;;46.55;27.15;;;;;;;1.00;100.00;103218.91;4989080;28;20175;-57
2023/03/01 02:34:11;;;;;;;48.55;27.77;;;;;;;1.00;100.00;103216.31;4989645;28;20050;-59
2023/03/01 02:36:43;;;;;;;45.33;26.33;;;;;;;0.58;100.00;103230.03;4989953;28;20113;-56
2023/03/01 02:39:16;;;;;;;51.58;29.63;;;;;;;0.79;100.00;103221.44;4988298;28;20095;-59
2023/03/01 02:41:46;;;;;;;50.92;27.95;;;;;;;0.50;100.00;103229.66;4989290;28;20033;-59
2023/03/01 02:44:12;;;;;;;52.58;29.02;;;;;;;0.53;100.00;103217.63;4970215;28;20023;-57
2023/03/01 02:46:46;;;;;;;53.65;29.00;;;;;;;0.74;100.00;103207.34;4989491;28;20049;-58
2023/03/01 02:49:27;;;;;;;51.28;29.33;;;;;;;0.78;100.00;103203.19;4987952;28;20034;-57
2023/03/01 02:52:33;;;;;;;52.67;28.25;;;;;;;0.96;100.00;103197.94;4987997;28;20676;-60
2023/03/01 02:55:08;;;;;;;46.20;26.90;;;;;;;0.98;100.00;103196.28;4971589;28;20035;-58
2023/03/01 02:57:35;;;;;;;52.20;28.90;;;;;;;0.86;100.00;103196.63;4989145;28;20097;-57
2023/03/01 03:00:29;;;;;;;56.15;29.05;;;;;;;0.82;100.00;103205.09;4969987;28;20031;-59
2023/03/01 03:02:56;;;;;;;52.33;29.00;;;;;;;0.86;100.00;103191.44;4988188;28;20034;-59
2023/03/01 03:05:28;;;;;;;50.20;28.75;;;;;;;0.90;100.00;103193.34;4987976;28;20022;-57
2023/03/01 03:07:54;;;;;;;57.15;30.25;;;;;;;0.91;100.00;103192.53;4987938;28;20034;-59
2023/03/01 03:10:31;;;;;;;60.80;30.30;;;;;;;0.84;100.00;103187.91;4988325;28;20022;-60
2023/03/01 03:13:03;;;;;;;52.58;28.48;;;;;;;0.93;100.00;103188.28;4987948;28;20038;-58
2023/03/01 03:15:28;;;;;;;58.17;30.13;;;;;;;0.94;100.00;103184.00;4987513;28;20492;-58
2023/03/01 03:17:56;;;;;;;57.80;32.70;;;;;;;1.00;100.00;103182.53;4988587;28;20026;-57
2023/03/01 03:20:24;;;;;;;54.72;30.27;;;;;;;0.73;100.00;103185.69;4988221;28;20126;-57
2023/03/01 03:22:51;;;;;;;53.95;30.60;;;;;;;0.59;100.00;103181.59;4970838;28;20052;-57
2023/03/01 03:25:17;;;;;;;58.38;31.50;;;;;;;0.87;100.00;103180.22;4987548;28;20026;-59
2023/03/01 03:27:44;;;;;;;51.33;30.25;;;;;;;1.05;100.00;103181.88;4987558;28;20059;-56
2023/03/01 03:30:13;;;;;;;59.63;30.52;;;;;;;1.05;100.00;103176.69;4987422;28;20034;-58
2023/03/01 03:32:42;;;;;;;;;;;;;;;1.06;100.00;103178.47;4988134;28;20091;-60
2023/03/01 03:35:09;;;;;;;48.72;25.55;;;;;;;1.04;100.00;103172.28;4970813;28;19966;-58
2023/03/01 03:40:22;;;;;;;46.63;27.23;;;;;;;0.91;100.00;103168.28;4972892;28;20058;-58
2023/03/01 03:42:48;;;;;;;53.33;28.90;;;;;;;0.79;100.00;103174.72;4987873;28;20058;-58
2023/03/01 03:45:13;;;;;;;48.90;28.30;;;;;;;0.72;100.00;103172.66;4986345;28;20083;-58
2023/03/01 03:47:39;;;;;;;47.28;27.80;;;;;;;0.63;100.00;103170.53;4987459;28;20030;-59
2023/03/01 03:50:04;;;;;;;42.53;27.00;;;;;;;0.59;100.00;103166.00;4988082;28;20035;-59
2023/03/01 03:52:30;;;;;;;45.97;27.70;;;;;;;0.61;100.00;103165.25;4987159;28;20030;-59
2023/03/01 03:54:55;;;;;;;49.45;27.83;;;;;;;0.55;100.00;103165.00;4988416;28;20046;-62
2023/03/01 03:57:21;;;;;;;55.90;29.25;;;;;;;0.59;100.00;103168.59;4987908;28;20034;-58
2023/03/01 03:59:46;;;;;;;56.22;30.58;;;;;;;0.63;100.00;103161.03;4959750;28;20043;-57
2023/03/01 04:02:11;;;;;;;54.35;30.70;;;;;;;0.67;100.00;103163.78;4968010;28;20114;-58
2023/03/01 04:04:37;;;;;;;56.97;32.05;;;;;;;0.63;100.00;103157.53;4967492;28;20034;-59
2023/03/01 04:07:02;;;;;;;56.60;30.98;;;;;;;0.65;100.00;103166.28;4968024;28;20035;-56
2023/03/01 04:09:30;;;;;;;55.85;31.38;;;;;;;0.55;100.00;103164.09;4984915;28;20034;-61
2023/03/01 04:11:55;;;;;;;53.67;30.75;;;;;;;0.56;100.00;103169.38;4987249;28;20113;-60
2023/03/01 04:14:20;;;;;;;58.70;31.90;;;;;;;0.55;100.00;103171.88;4968663;28;20122;-56
2023/03/01 04:16:46;;;;;;;59.75;32.83;;;;;;;0.58;100.00;103165.16;4987593;28;20027;-57
2023/03/01 04:19:11;;;;;;;58.95;31.70;;;;;;;0.54;100.00;103167.53;4986745;28;20069;-57
2023/03/01 04:21:37;;;;;;;60.05;31.33;;;;;;;0.42;100.00;103163.53;4988144;28;20518;-57
2023/03/01 04:24:03;;;;;;;59.55;31.00;;;;;;;0.35;100.00;103167.56;4987109;28;20076;-57
2023/03/01 04:26:29;;;;;;;57.33;32.08;;;;;;;0.33;100.00;103165.72;4969184;28;20027;-58
2023/03/01 04:28:54;;;;;;;54.33;29.73;;;;;;;0.41;100.00;103161.75;4986431;28;20358;-60
2023/03/01 04:31:21;;;;;;;52.13;30.60;;;;;;;0.34;100.00;103154.53;4987232;28;20034;-60
2023/03/01 04:33:51;;;;;;;70.57;31.20;;;;;;;0.22;100.00;103162.63;4986571;28;20037;-57
2023/03/01 04:36:18;;;;;;;64.53;31.35;;;;;;;0.11;100.00;103162.09;4969760;28;20034;-60
2023/03/01 04:38:47;;;;;;;57.20;31.60;;;;;;;0.16;100.00;103160.63;4986550;28;20026;-58
2023/03/01 04:41:15;;;;;;;54.53;30.20;;;;;;;0.19;100.00;103163.38;4986499;28;20166;-58
2023/03/01 04:43:40;;;;;;;55.60;30.77;;;;;;;0.23;100.00;103162.69;4985987;28;20148;-58
2023/03/01 04:46:09;;;;;;;53.20;30.20;;;;;;;0.23;100.00;103154.00;4987648;28;20540;-58
2023/03/01 04:48:38;;;;;;;59.03;31.35;;;;;;;0.14;100.00;103153.56;4969012;28;20509;-58
2023/03/01 04:51:05;;;;;;;48.97;29.42;;;;;;;0.15;100.00;103145.88;4970305;28;20430;-59
2023/03/01 04:53:31;;;;;;;52.80;27.98;;;;;;;0.07;100.00;103142.03;4986108;28;20633;-59
2023/03/01 04:55:56;;;;;;;48.30;28.48;;;;;;;0.04;100.00;103145.38;4986409;28;20041;-56
2023/03/01 04:58:26;;;;;;;83.28;30.88;;;;;;;-0.13;100.00;103144.56;4986075;28;20026;-58
2023/03/01 05:00:52;;;;;;;53.75;27.58;;;;;;;-0.13;100.00;103136.78;4985560;28;20052;-58
2023/03/01 05:03:18;;;;;;;143.73;30.27;;;;;;;-0.19;100.00;103133.91;4986450;28;20029;-57
2023/03/01 05:05:44;;;;;;;175.63;33.70;;;;;;;-0.21;100.00;103132.97;4986493;28;20466;-58
2023/03/01 05:08:17;;;;;;;58.17;30.05;;;;;;;-0.18;100.00;103138.28;4987113;28;20026;-56
2023/03/01 05:10:42;;;;;;;89.43;33.15;;;;;;;-0.27;100.00;103128.38;4986942;28;20402;-58
2023/03/01 05:13:07;;;;;;;85.53;32.38;;;;;;;-0.21;100.00;103132.97;4987215;28;20026;-59
2023/03/01 05:15:33;;;;;;;119.47;33.10;;;;;;;-0.29;100.00;103130.00;4985795;28;20050;-58
2023/03/01 05:17:59;;;;;;;100.45;33.15;;;;;;;-0.26;100.00;103128.44;4986559;28;20459;-58
2023/03/01 05:20:29;;;;;;;128.38;33.53;;;;;;;-0.30;100.00;103126.50;4954108;28;20479;-60
2023/03/01 05:22:59;;;;;;;58.38;30.15;;;;;;;-0.30;100.00;103118.72;4967292;28;20060;-59
2023/03/01 05:25:25;;;;;;;154.65;33.65;;;;;;;-0.53;100.00;103126.28;4966661;28;20378;-58
2023/03/01 05:27:51;;;;;;;88.78;33.33;;;;;;;-0.84;100.00;103114.38;4971045;28;20034;-58
2023/03/01 05:30:17;;;;;;;116.22;35.78;;;;;;;-0.32;100.00;103111.69;4985784;28;20102;-59
2023/03/01 05:32:44;;;;;;;91.50;32.22;;;;;;;-0.26;100.00;103105.13;4985546;28;20023;-59
2023/03/01 05:35:15;;;;;;;69.75;32.67;;;;;;;-0.68;100.00;103107.38;4985461;28;20482;-58
2023/03/01 05:37:42;;;;;;;47.10;28.60;;;;;;;-0.60;100.00;103095.69;4966814;28;20046;-56
2023/03/01 05:40:15;;;;;;;49.13;25.60;;;;;;;-0.73;100.00;103086.44;4978620;28;20079;-57
2023/03/01 05:42:45;;;;;;;48.65;27.83;;;;;;;-0.98;100.00;103085.22;4986716;28;20106;-57
2023/03/01 05:45:12;;;;;;;48.17;28.88;;;;;;;-1.02;100.00;103081.56;4982233;28;20093;-60
2023/03/01 05:47:39;;;;;;;54.40;28.75;;;;;;;-0.70;100.00;103086.59;4986265;28;20022;-59
2023/03/01 05:50:05;;;;;;;46.38;28.13;;;;;;;-0.56;100.00;103079.50;4986148;28;20030;-59
2023/03/01 05:52:30;;;;;;;44.78;26.95;;;;;;;-0.44;100.00;103079.22;4985211;28;20033;-58
2023/03/01 05:54:55;;;;;;;47.22;28.88;;;;;;;-0.42;100.00;103077.56;4985909;28;20093;-55
2023/03/01 05:57:20;;;;;;;51.53;28.45;;;;;;;-0.42;100.00;103077.56;4984953;28;20486;-57
2023/03/01 05:59:46;;;;;;;55.47;31.63;;;;;;;-0.43;100.00;103081.00;4984735;28;20489;-57
2023/03/01 06:02:11;;;;;;;58.53;30.38;;;;;;;-0.45;100.00;103072.25;4982325;28;20056;-58
2023/03/01 06:04:37;;;;;;;52.90;28.55;;;;;;;-0.30;100.00;103066.91;4985537;28;20026;-59
2023/03/01 06:07:02;;;;;;;54.20;30.42;;;;;;;-0.23;100.00;103069.78;4985054;28;20113;-60
2023/03/01 06:09:27;;;;;;;53.20;29.80;;;;;;;-0.17;100.00;103077.88;4996829;28;20030;-58
2023/03/01 06:11:52;;;;;;;57.20;30.95;;;;;;;-0.14;100.00;103078.00;4987202;28;20022;-58
2023/03/01 06:14:18;;;;;;;48.95;28.40;;;;;;;-0.19;100.00;103077.78;4996342;28;20042;-60
2023/03/01 06:16:43;;;;;;;50.50;28.20;;;;;;;-0.29;100.00;103076.47;4969073;28;20023;-56
2023/03/01 06:19:09;;;;;;;50.08;27.13;;;;;;;-0.33;100.00;103081.44;4985330;28;20025;-58
2023/03/01 06:21:34;;;;;;;43.80;24.75;;;;;;;-0.38;100.00;103083.81;4986504;28;20031;-57
2023/03/01 06:23:59;;;;;;;45.00;26.90;;;;;;;-0.51;100.00;103078.00;4985245;28;20459;-59
2023/03/01 06:26:25;;;;;;;46.13;25.45;;;;;;;-0.60;100.00;103093.09;4983040;28;20419;-58
2023/03/01 06:28:50;;;;;;;45.53;25.48;;;;;;;-0.78;100.00;103088.78;4960612;28;20535;-57
2023/03/01 06:31:15;;;;;;;37.80;23.35;;;;;;;-0.98;100.00;103095.56;4977268;28;20027;-57
2023/03/01 06:33:41;;;;;;;39.10;23.83;;;;;;;-0.85;100.00;103093.63;4984961;28;20027;-58
2023/03/01 06:36:07;;;;;;;38.30;22.92;;;;;;;-1.05;100.00;103094.34;4984986;28;20163;-58
2023/03/01 06:38:32;;;;;;;38.38;22.75;;;;;;;-1.12;100.00;103084.50;4966338;28;20022;-56
2023/03/01 06:40:57;;;;;;;35.78;22.25;;;;;;;-1.11;100.00;103101.84;4984919;28;20054;-55
2023/03/01 06:43:23;;;;;;;33.45;21.35;;;;;;;-1.12;100.00;103097.44;4983807;28;20022;-60
2023/03/01 06:45:49;;;;;;;37.22;22.17;;;;;;;-1.14;100.00;103101.66;4983491;28;20034;-57
2023/03/01 06:48:15;;;;;;;37.78;23.52;;;;;;;-1.09;100.00;103107.09;4983782;28;20094;-59
2023/03/01 06:50:40;;;;;;;41.95;25.02;;;;;;;-1.06;100.00;103094.28;4982148;28;20038;-57
2023/03/01 06:53:05;;;;;;;38.42;22.70;;;;;;;-1.00;100.00;103101.50;4984587;28;20034;-58
2023/03/01 06:55:31;;;;;;;41.80;24.85;;;;;;;-0.96;100.00;103098.25;4983799;28;20453;-59
2023/03/01 06:57:57;;;;;;;41.35;25.05;;;;;;;-0.90;100.00;103103.72;4965711;28;20521;-58
2023/03/01 07:00:23;;;;;;;43.05;25.88;;;;;;;-0.84;100.00;103109.19;4966101;28;20117;-61
2023/03/01 07:02:49;;;;;;;42.75;25.67;;;;;;;-0.80;100.00;103105.97;4984001;28;20061;-56
2023/03/01 07:05:14;;;;;;;48.58;26.60;;;;;;;-0.76;100.00;103096.63;4983926;28;20043;-59
2023/03/01 07:07:39;;;;;;;45.80;27.67;;;;;;;-0.65;100.00;103099.78;4982909;28;20028;-57
2023/03/01 07:10:06;;;;;;;47.95;27.00;;;;;;;-0.51;100.00;103093.56;4984375;28;20030;-56
2023/03/01 07:12:31;;;;;;;53.53;28.92;;;;;;;-0.42;100.00;103092.25;4984125;28;20022;-57
2023/03/01 07:14:56;;;;;;;51.50;29.70;;;;;;;-0.37;100.00;103098.53;4986121;28;20039;-57
2023/03/01 07:17:22;;;;;;;51.40;28.75;;;;;;;-0.36;100.00;103094.25;4987736;28;20022;-61
2023/03/01 07:19:47;;;;;;;47.50;27.35;;;;;;;-0.32;100.00;103094.47;4987898;28;20061;-61
2023/03/01 07:22:13;;;;;;;48.33;29.42;;;;;;;-0.21;100.00;103088.91;4987654;28;20030;-61
2023/03/01 07:24:38;;;;;;;56.08;30.75;;;;;;;-0.15;100.00;103095.25;4987763;28;20368;-62
2023/03/01 07:27:03;;;;;;;49.50;29.23;;;;;;;-0.02;100.00;103098.44;4987335;28;20038;-57
2023/03/01 07:29:29;;;;;;;51.58;30.10;;;;;;;0.05;100.00;103102.19;4986586;28;20030;-54
2023/03/01 07:31:54;;;;;;;51.80;30.17;;;;;;;0.08;100.00;103110.09;4987850;28;20026;-59
2023/03/01 07:34:20;;;;;;;47.83;29.30;;;;;;;0.06;100.00;103094.47;4987585;28;20175;-59
2023/03/01 07:36:45;;;;;;;53.00;28.88;;;;;;;0.14;100.00;103104.31;4987763;28;20026;-57
2023/03/01 07:39:11;;;;;;;49.85;28.13;;;;;;;0.21;100.00;103099.47;4987029;28;20482;-59
2023/03/01 07:41:37;;;;;;;52.38;30.48;;;;;;;0.24;100.00;103098.75;4987660;28;20501;-58
2023/03/01 07:44:02;;;;;;;52.53;28.23;;;;;;;0.30;100.00;103095.56;4982330;28;20127;-58
2023/03/01 07:46:28;;;;;;;54.13;29.02;;;;;;;0.40;100.00;103102.03;4978001;28;20570;-60
2023/03/01 07:48:53;;;;;;;48.35;28.75;;;;;;;0.47;100.00;103107.56;4968021;28;20176;-57
2023/03/01 07:51:18;;;;;;;52.80;29.58;;;;;;;0.48;100.00;103101.56;4967619;28;20023;-58
2023/03/01 07:53:46;;;;;;;51.10;29.60;;;;;;;0.56;100.00;103109.69;4967874;28;20078;-57
2023/03/01 07:56:14;;;;;;;58.03;30.23;;;;;;;0.61;100.00;103102.13;4967831;28;20112;-56
2023/03/01 07:58:41;;;;;;;55.60;28.48;;;;;;;0.71;100.00;103108.59;4982477;28;20091;-62
2023/03/01 08:01:08;;;;;;;54.80;30.25;;;;;;;0.80;100.00;103102.91;4986397;28;20030;-59
2023/03/01 08:03:34;;;;;;;53.70;29.80;;;;;;;0.87;100.00;103111.03;4987030;28;20109;-55
2023/03/01 08:06:01;;;;;;;59.00;31.38;;;;;;;0.96;100.00;103100.16;4986034;28;20046;-56
2023/03/01 08:08:27;;;;;;;55.00;30.85;;;;;;;0.98;100.00;103103.72;4948917;28;20073;-56
2023/03/01 08:10:52;;;;;;;56.25;29.98;;;;;;;1.04;100.00;103102.19;4966945;28;20552;-56
2023/03/01 08:13:22;;;;;;;56.90;30.25;;;;;;;1.10;100.00;103097.25;4966485;28;20065;-59
2023/03/01 08:15:50;;;;;;;54.70;30.58;;;;;;;1.06;100.00;103095.34;4967649;28;20058;-59
2023/03/01 08:18:17;;;;;;;51.53;29.77;;;;;;;1.16;100.00;103097.53;4979550;28;20030;-59
2023/03/01 08:20:42;;;;;;;57.45;28.73;;;;;;;1.21;100.00;103095.13;4986064;28;20316;-59
2023/03/01 08:23:07;;;;;;;55.53;27.95;;;;;;;1.40;100.00;103088.97;4987624;28;20458;-57
2023/03/01 08:25:33;;;;;;;53.30;28.27;;;;;;;1.56;100.00;103089.59;4985917;28;20044;-60
2023/03/01 08:27:58;;;;;;;53.22;27.52;;;;;;;1.63;100.00;103089.88;4970001;28;20030;-58
2023/03/01 08:30:23;;;;;;;51.97;27.55;;;;;;;1.61;100.00;103094.16;4988647;28;20033;-58
2023/03/01 08:32:49;;;;;;;47.72;26.60;;;;;;;1.45;100.00;103090.06;5006254;28;20114;-60
2023/03/01 08:35:15;;;;;;;50.05;26.08;;;;;;;1.75;100.00;103088.63;5006241;28;20042;-60
2023/03/01 08:37:41;;;;;;;51.00;26.55;;;;;;;1.70;100.00;103084.94;5006049;28;20030;-56
2023/03/01 08:40:09;;;;;;;44.08;24.73;;;;;;;1.82;100.00;103085.44;4989532;28;20034;-56
2023/03/01 08:42:35;;;;;;;46.97;25.80;;;;;;;1.84;100.00;103083.75;4985168;28;20033;-59
2023/03/01 08:45:00;;;;;;;44.45;24.08;;;;;;;1.84;100.00;103080.28;4984999;28;20022;-58
2023/03/01 08:47:26;;;;;;;42.53;21.30;;;;;;;1.73;100.00;103078.16;4984033;28;20112;-58
2023/03/01 08:49:52;;;;;;;35.83;21.60;;;;;;;1.99;100.00;103080.84;4984706;28;20048;-59
2023/03/01 08:52:18;;;;;;;31.02;20.23;;;;;;;2.12;100.00;103073.53;4992962;28;20091;-61
2023/03/01 08:54:44;;;;;;;31.95;20.08;;;;;;;2.18;100.00;103085.88;4977333;28;20470;-63
2023/03/01 08:57:09;;;;;;;34.60;19.08;;;;;;;2.37;100.00;103085.75;4965301;28;20034;-64
2023/03/01 08:59:37;;;;;;;28.30;18.13;;;;;;;2.39;100.00;103078.00;4962064;28;20331;-65
2023/03/01 09:02:03;;;;;;;30.15;18.88;;;;;;;2.25;100.00;103077.47;4978655;28;20326;-64
2023/03/01 09:04:28;;;;;;;30.95;19.25;;;;;;;2.18;100.00;103081.56;4985046;28;20026;-59
2023/03/01 09:06:54;;;;;;;31.05;18.90;;;;;;;2.25;100.00;103086.16;4974550;28;20023;-61
2023/03/01 09:09:19;;;;;;;27.33;17.92;;;;;;;2.24;100.00;103079.22;4967089;28;20035;-60
2023/03/01 09:11:45;;;;;;;29.80;18.10;;;;;;;2.39;100.00;103068.47;4965557;28;20072;-60
2023/03/01 09:14:12;;;;;;;25.58;15.88;;;;;;;2.28;100.00;103067.19;4948134;28;20031;-60
2023/03/01 09:16:37;;;;;;;23.50;15.82;;;;;;;2.51;100.00;103067.13;4973550;28;20044;-60
2023/03/01 09:19:03;;;;;;;19.05;13.18;;;;;;;2.33;100.00;103057.84;4982941;28;20394;-60
2023/03/01 09:21:29;;;;;;;25.83;12.35;;;;;;;2.40;100.00;103059.84;5001784;28;20351;-62
2023/03/01 09:23:56;;;;;;;16.73;11.20;;;;;;;2.50;100.00;103052.38;4984309;28;20064;-59
2023/03/01 09:26:22;;;;;;;15.68;11.23;;;;;;;2.43;100.00;103052.94;4984770;28;20121;-61
2023/03/01 09:28:50;;;;;;;15.35;10.90;;;;;;;2.80;100.00;103054.25;4966488;28;20049;-61
2023/03/01 09:31:17;;;;;;;13.88;10.30;;;;;;;3.09;100.00;103056.06;4988760;28;20027;-60
2023/03/01 09:33:42;;;;;;;16.27;10.60;;;;;;;3.27;100.00;103051.47;4984314;28;20050;-61
2023/03/01 09:36:14;;;;;;;23.60;9.60;;;;;;;3.08;100.00;103050.00;4985678;28;20053;-59
2023/03/01 09:38:39;;;;;;;13.10;8.85;;;;;;;3.35;100.00;103051.72;4983967;28;20027;-62
2023/03/01 09:41:17;;;;;;;12.60;8.82;;;;;;;3.52;100.00;103044.44;4984872;28;20147;-60
2023/03/01 09:43:53;;;;;;;12.98;9.30;;;;;;;3.67;100.00;103045.72;4984361;28;20079;-62
2023/03/01 09:46:19;;;;;;;13.23;9.30;;;;;;;3.74;100.00;103052.94;4983866;28;20031;-61
2023/03/01 09:48:57;;;;;;;13.02;9.93;;;;;;;3.79;100.00;103051.31;4967254;28;20031;-61
2023/03/01 09:51:31;;;;;;;15.43;9.35;;;;;;;3.74;100.00;103042.50;4984484;28;20537;-61
2023/03/01 09:53:58;;;;;;;20.88;9.90;;;;;;;3.86;100.00;103048.91;4967835;28;20083;-62
2023/03/01 09:56:34;;;;;;;18.50;9.35;;;;;;;3.88;100.00;103049.81;4966745;28;20437;-61
2023/03/01 09:59:08;;;;;;;14.02;9.18;;;;;;;3.96;100.00;103048.34;4966664;28;20034;-62
2023/03/01 10:01:56;;;;;;;13.50;8.90;;;;;;;4.12;100.00;103040.97;4984946;28;20038;-60
2023/03/01 10:04:49;;;;;;;13.73;8.55;;;;;;;4.19;100.00;103039.41;4936866;28;20120;-61
2023/03/01 10:07:44;;;;;;;9.30;7.20;;;;;;;4.07;100.00;103034.72;4964874;28;20027;-62
2023/03/01 10:10:36;;;;;;;13.07;8.27;;;;;;;4.05;100.00;103037.28;4966284;28;20031;-60
2023/03/01 10:13:15;;;;;;;15.93;8.50;;;;;;;4.32;100.00;103032.81;4965437;28;20035;-62
2023/03/01 10:15:48;;;;;;;10.77;6.90;;;;;;;4.28;99.09;103040.53;4965259;28;20054;-61
2023/03/01 10:18:21;;;;;;;8.27;6.60;;;;;;;4.55;98.73;103030.84;4965200;28;20035;-60
2023/03/01 10:20:52;;;;;;;9.07;6.50;;;;;;;4.64;97.98;103030.19;4967912;28;20490;-60
2023/03/01 10:23:18;;;;;;;9.38;6.35;;;;;;;4.69;96.99;103020.75;4984403;28;20677;-60
2023/03/01 10:26:08;;;;;;;11.23;6.80;;;;;;;4.85;96.26;103015.91;4985421;28;20030;-60
2023/03/01 10:28:47;;;;;;;12.23;7.90;;;;;;;4.90;97.31;103015.19;4983532;28;20037;-59
2023/03/01 10:31:22;;;;;;;16.85;9.27;;;;;;;4.55;97.01;103009.94;4967254;28;20038;-59
2023/03/01 10:33:51;;;;;;;15.25;8.82;;;;;;;4.46;97.63;103010.59;4985880;28;20023;-60
2023/03/01 10:36:16;;;;;;;;;;;;;;;4.72;97.23;102999.06;4985185;28;20023;-60
2023/03/01 10:38:56;;;;;;;12.23;9.02;;;;;;;4.74;96.52;103002.56;4983685;28;19913;-60
2023/03/01 10:41:24;;;;;;;12.00;8.63;;;;;;;5.01;96.39;102997.16;4989048;28;20023;-58
2023/03/01 10:43:53;;;;;;;14.70;8.63;;;;;;;5.30;94.84;102993.47;4988162;28;20045;-60
2023/03/01 10:46:36;;;;;;;11.10;8.45;;;;;;;5.40;94.00;102994.56;4983757;28;20030;-60
2023/03/01 10:49:10;;;;;;;15.20;9.70;;;;;;;5.39;93.81;102987.56;4985290;28;20027;-60
2023/03/01 10:51:36;;;;;;;15.85;10.15;;;;;;;5.55;95.26;102992.31;4988055;28;20420;-59
2023/03/01 10:54:01;;;;;;;14.38;8.48;;;;;;;5.57;93.21;102995.81;4985967;28;20022;-60
2023/03/01 10:56:26;;;;;;;12.68;8.80;;;;;;;5.63;92.58;102988.97;4985243;28;20030;-60
2023/03/01 10:59:04;;;;;;;12.77;9.18;;;;;;;5.86;92.21;102986.81;4985215;28;20110;-61
2023/03/01 11:01:32;;;;;;;17.60;9.40;;;;;;;5.98;90.85;102978.34;4984373;28;20026;-60
2023/03/01 11:04:11;;;;;;;13.05;8.77;;;;;;;5.75;91.16;102975.25;5045021;28;20407;-61
2023/03/01 11:06:38;;;;;;;16.67;8.27;;;;;;;6.02;89.81;102976.69;5088474;28;20028;-60
2023/03/01 11:09:19;;;;;;;12.30;7.97;;;;;;;6.13;88.92;102975.19;5090349;28;20430;-60
2023/03/01 11:11:45;;;;;;;14.40;8.20;;;;;;;6.07;89.54;102961.97;5087990;28;20337;-61
2023/03/01 11:14:18;;;;;;;25.00;9.40;;;;;;;5.96;90.33;102959.09;4949626;28;20027;-61
2023/03/01 11:16:47;;;;;;;25.52;8.93;;;;;;;5.77;90.01;102947.38;4968393;28;20026;-61
2023/03/01 11:19:17;;;;;;;14.38;8.70;;;;;;;6.23;90.56;102944.81;4967657;28;20119;-61